createdAt,value
2018-04-12T00:00:40.537Z,14.77
2018-04-12T00:03:08.199Z,13.40
2018-04-12T00:05:35.854Z,14.40
2018-04-12T00:08:03.514Z,14.17
2018-04-12T00:10:31.125Z,14.27
2018-04-12T00:12:58.798Z,14.67
2018-04-12T00:15:27.221Z,15.23
2018-04-12T00:17:54.849Z,15.43
2018-04-12T00:20:22.514Z,15.20
2018-04-12T00:22:50.138Z,15.70
2018-04-12T00:25:17.937Z,15.67
2018-04-12T00:27:46.218Z,16.80
2018-04-12T00:30:13.882Z,17.17
2018-04-12T00:32:41.529Z,15.03
2018-04-12T00:35:09.178Z,16.23
2018-04-12T00:37:36.849Z,14.60
2018-04-12T00:40:04.508Z,13.37
2018-04-12T00:42:32.889Z,14.37
2018-04-12T00:45:00.515Z,14.50
2018-04-12T00:47:28.122Z,14.47
2018-04-12T00:49:55.791Z,12.80
2018-04-12T00:52:23.461Z,13.83
2018-04-12T00:54:51.868Z,12.30
2018-04-12T00:57:20.289Z,13.70
2018-04-12T00:59:47.913Z,12.50
2018-04-12T01:02:15.625Z,13.70
2018-04-12T01:04:43.272Z,12.60
2018-04-12T01:07:10.883Z,13.40
2018-04-12T01:09:38.534Z,12.50
2018-04-12T01:12:06.172Z,11.67
2018-04-12T01:14:33.820Z,11.87
2018-04-12T01:17:01.494Z,11.47
2018-04-12T01:19:29.111Z,12.07
2018-04-12T01:22:00.370Z,11.13
2018-04-12T01:24:27.995Z,10.40
2018-04-12T01:26:55.649Z,11.27
2018-04-12T01:29:23.274Z,12.07
2018-04-12T01:31:51.693Z,11.90
2018-04-12T01:34:20.118Z,11.93
2018-04-12T01:36:47.732Z,11.13
2018-04-12T01:39:15.371Z,11.83
2018-04-12T01:41:42.998Z,10.33
2018-04-12T01:44:10.625Z,10.63
2018-04-12T01:46:39.062Z,10.10
2018-04-12T01:49:06.656Z,8.90
2018-04-12T01:51:34.307Z,9.23
2018-04-12T01:54:02.745Z,9.23
2018-04-12T01:56:30.366Z,10.20
2018-04-12T01:58:58.033Z,10.40
2018-04-12T02:01:25.659Z,9.93
2018-04-12T02:03:53.281Z,9.57
2018-04-12T02:06:20.905Z,9.80
2018-04-12T02:08:48.505Z,9.60
2018-04-12T02:11:16.163Z,8.47
2018-04-12T02:13:43.812Z,7.80
2018-04-12T02:16:12.286Z,8.50
2018-04-12T02:18:39.992Z,9.43
2018-04-12T02:21:07.633Z,8.23
2018-04-12T02:23:35.285Z,7.67
2018-04-12T02:26:02.934Z,7.07
2018-04-12T02:28:30.567Z,7.20
2018-04-12T02:30:58.218Z,8.73
2018-04-12T02:33:26.618Z,7.90
2018-04-12T02:35:54.274Z,6.37
2018-04-12T02:38:21.905Z,8.33
2018-04-12T02:40:50.309Z,7.90
2018-04-12T02:43:18.737Z,8.30
2018-04-12T02:45:46.390Z,7.37
2018-04-12T02:48:14.033Z,7.40
2018-04-12T02:50:41.713Z,7.30
2018-04-12T02:53:10.082Z,6.23
2018-04-12T02:55:38.530Z,6.50
2018-04-12T02:58:06.929Z,6.70
2018-04-12T03:00:34.592Z,7.43
2018-04-12T03:03:02.213Z,6.83
2018-04-12T03:05:29.862Z,9.30
2018-04-12T03:07:57.473Z,7.90
2018-04-12T03:10:25.091Z,6.70
2018-04-12T03:12:52.738Z,6.40
2018-04-12T03:15:20.373Z,6.47
2018-04-12T03:17:48.030Z,6.87
2018-04-12T03:20:15.683Z,6.20
2018-04-12T03:22:44.081Z,7.97
2018-04-12T03:25:12.497Z,6.73
2018-04-12T03:27:40.899Z,7.40
2018-04-12T03:30:09.317Z,6.77
2018-04-12T03:32:36.968Z,7.03
2018-04-12T03:35:04.633Z,7.53
2018-04-12T03:37:32.278Z,6.60
2018-04-12T03:40:00.690Z,6.60
2018-04-12T03:42:28.326Z,8.07
2018-04-12T03:44:55.962Z,6.97
2018-04-12T03:47:24.265Z,6.77
2018-04-12T03:49:51.913Z,7.30
2018-04-12T03:52:19.582Z,6.47
2018-04-12T03:54:47.242Z,6.20
2018-04-12T03:57:14.914Z,6.83
2018-04-12T03:59:42.537Z,7.47
2018-04-12T04:02:10.229Z,7.10
2018-04-12T04:04:37.846Z,8.83
2018-04-12T04:07:05.540Z,7.30
2018-04-12T04:09:33.209Z,6.23
2018-04-12T04:12:00.877Z,9.07
2018-04-12T04:17:44.177Z,9.23
2018-04-12T04:20:23.572Z,9.63
2018-04-12T04:22:51.137Z,8.27
2018-04-12T04:25:18.729Z,7.13
2018-04-12T04:27:46.334Z,11.23
2018-04-12T04:30:13.905Z,7.73
2018-04-12T04:32:41.497Z,5.43
2018-04-12T04:35:09.093Z,7.33
2018-04-12T04:37:36.709Z,5.13
2018-04-12T04:40:04.370Z,7.30
2018-04-12T04:42:31.998Z,5.40
2018-04-12T04:44:59.691Z,5.63
2018-04-12T04:47:27.329Z,5.40
2018-04-12T04:49:54.953Z,8.50
2018-04-12T04:52:22.638Z,6.30
2018-04-12T04:54:50.281Z,5.33
2018-04-12T04:57:17.934Z,6.63
2018-04-12T04:59:45.564Z,5.43
2018-04-12T05:02:13.236Z,6.67
2018-04-12T05:05:01.257Z,6.57
2018-04-12T05:07:28.897Z,6.17
2018-04-12T05:09:56.573Z,6.43
2018-04-12T05:12:24.223Z,7.00
2018-04-12T05:14:51.900Z,10.60
2018-04-12T05:17:19.585Z,7.60
2018-04-12T05:19:47.539Z,8.43
2018-04-12T05:22:15.311Z,8.30
2018-04-12T05:24:42.896Z,4.97
2018-04-12T05:27:10.751Z,5.37
2018-04-12T05:29:38.424Z,5.17
2018-04-12T05:32:06.082Z,6.13
2018-04-12T05:34:33.770Z,4.83
2018-04-12T05:37:01.414Z,6.27
2018-04-12T05:39:29.084Z,6.87
2018-04-12T05:41:56.723Z,6.00
2018-04-12T05:44:24.370Z,6.47
2018-04-12T05:46:52.026Z,7.37
2018-04-12T05:49:20.422Z,6.13
2018-04-12T05:51:48.073Z,6.80
2018-04-12T05:54:15.857Z,4.90
2018-04-12T05:56:43.484Z,10.17
2018-04-12T05:59:11.957Z,7.00
2018-04-12T06:01:39.576Z,5.80
2018-04-12T06:04:07.270Z,6.77
2018-04-12T06:06:34.909Z,7.47
2018-04-12T06:09:02.588Z,7.30
2018-04-12T06:11:30.297Z,6.57
2018-04-12T06:13:57.933Z,6.53
2018-04-12T06:16:26.356Z,6.30
2018-04-12T06:18:53.965Z,6.67
2018-04-12T06:21:22.132Z,5.40
2018-04-12T06:23:49.757Z,4.20
2018-04-12T06:26:17.397Z,9.10
2018-04-12T06:28:45.038Z,5.57
2018-04-12T06:31:12.689Z,4.87
2018-04-12T06:33:40.373Z,7.20
2018-04-12T06:36:08.025Z,7.33
2018-04-12T06:38:35.662Z,9.53
2018-04-12T06:41:03.318Z,8.27
2018-04-12T06:43:31.712Z,8.80
2018-04-12T06:45:59.367Z,6.07
2018-04-12T06:48:27.034Z,5.57
2018-04-12T06:50:54.876Z,5.20
2018-04-12T06:53:22.517Z,7.00
2018-04-12T06:55:51.193Z,9.87
2018-04-12T06:58:18.865Z,10.57
2018-04-12T07:00:47.286Z,9.20
2018-04-12T07:03:14.921Z,7.90
2018-04-12T07:05:42.582Z,6.40
2018-04-12T07:08:10.194Z,9.33
2018-04-12T07:10:38.693Z,5.67
2018-04-12T07:13:06.377Z,8.80
2018-04-12T07:15:33.997Z,7.60
2018-04-12T07:18:01.650Z,8.03
2018-04-12T07:20:29.314Z,10.60
2018-04-12T07:22:56.978Z,5.17
2018-04-12T07:25:25.401Z,5.50
2018-04-12T07:27:53.043Z,8.57
2018-04-12T07:30:20.722Z,4.63
2018-04-12T07:32:50.087Z,9.07
2018-04-12T07:35:17.770Z,7.17
2018-04-12T07:37:46.217Z,6.63
2018-04-12T07:40:13.881Z,7.37
2018-04-12T07:42:41.541Z,8.03
2018-04-12T07:45:10.252Z,6.97
2018-04-12T07:47:38.738Z,14.10
2018-04-12T07:50:06.406Z,6.90
2018-04-12T07:52:34.578Z,5.90
2018-04-12T07:55:09.737Z,5.07
2018-04-12T07:57:37.935Z,7.07
2018-04-12T08:00:05.709Z,8.63
2018-04-12T08:02:34.137Z,8.20
2018-04-12T08:05:02.537Z,7.67
2018-04-12T08:07:30.237Z,6.57
2018-04-12T08:09:57.873Z,4.87
2018-04-12T08:12:25.592Z,5.33
2018-04-12T08:14:54.017Z,5.57
2018-04-12T08:17:21.698Z,5.50
2018-04-12T08:19:49.402Z,5.73
2018-04-12T08:22:17.042Z,6.20
2018-04-12T08:24:44.667Z,7.80
2018-04-12T08:27:12.382Z,5.07
2018-04-12T08:29:40.010Z,6.37
2018-04-12T08:32:08.401Z,8.40
2018-04-12T08:34:36.103Z,7.17
2018-04-12T08:37:03.730Z,4.67
2018-04-12T08:39:31.373Z,6.10
2018-04-12T08:41:59.029Z,6.43
2018-04-12T08:44:26.645Z,2.83
2018-04-12T08:46:59.299Z,6.50
2018-04-12T08:49:26.982Z,8.27
2018-04-12T08:51:54.772Z,8.43
2018-04-12T08:54:22.397Z,3.27
2018-04-12T08:56:50.025Z,8.20
2018-04-12T08:59:17.709Z,6.53
2018-04-12T09:01:46.186Z,3.23
2018-04-12T09:04:13.827Z,3.67
2018-04-12T09:06:41.496Z,7.57
2018-04-12T09:09:09.157Z,5.07
2018-04-12T09:11:36.798Z,3.40
2018-04-12T09:14:04.507Z,5.50
2018-04-12T09:16:32.113Z,3.00
2018-04-12T09:19:00.038Z,3.63
2018-04-12T09:21:28.440Z,8.20
2018-04-12T09:23:56.892Z,4.27
2018-04-12T09:26:24.553Z,5.43
2018-04-12T09:28:52.159Z,5.80
2018-04-12T09:31:19.821Z,2.70
2018-04-12T09:33:47.521Z,5.70
2018-04-12T09:36:15.485Z,3.53
2018-04-12T09:38:43.333Z,4.43
2018-04-12T09:41:11.244Z,3.07
2018-04-12T09:43:39.573Z,5.80
2018-04-12T09:52:07.670Z,5.07
2018-04-12T09:54:35.437Z,5.40
2018-04-12T09:57:03.291Z,2.53
2018-04-12T09:59:31.807Z,3.87
2018-04-12T10:02:01.534Z,1.83
2018-04-12T10:04:29.256Z,3.70
2018-04-12T10:07:02.691Z,5.67
2018-04-12T10:09:30.633Z,1.90
2018-04-12T10:12:08.844Z,4.07
2018-04-12T10:20:22.737Z,3.03
2018-04-12T10:22:50.538Z,2.70
2018-04-12T10:25:19.231Z,3.63
2018-04-12T10:27:46.980Z,2.70
2018-04-12T10:30:14.747Z,2.93
2018-04-12T10:32:42.380Z,1.60
2018-04-12T10:35:10.041Z,4.23
2018-04-12T10:37:37.669Z,4.03
2018-04-12T10:40:06.106Z,3.57
2018-04-12T10:42:33.716Z,2.97
2018-04-12T10:45:01.466Z,2.30
2018-04-12T10:47:30.418Z,3.50
2018-04-12T10:49:58.074Z,2.53
2018-04-12T10:52:26.482Z,2.03
2018-04-12T10:54:54.245Z,4.83
2018-04-12T10:57:21.953Z,6.53
2018-04-12T10:59:49.680Z,2.83
2018-04-12T11:02:17.324Z,4.50
2018-04-12T11:04:45.752Z,2.50
2018-04-12T11:07:13.402Z,5.07
2018-04-12T11:09:41.891Z,2.07
2018-04-12T11:12:09.566Z,3.87
2018-04-12T11:14:37.230Z,1.77
2018-04-12T11:17:04.922Z,5.07
2018-04-12T11:19:32.570Z,1.63
2018-04-12T11:22:01.049Z,3.50
2018-04-12T11:24:28.733Z,3.50
2018-04-12T11:26:56.361Z,3.00
2018-04-12T11:29:24.857Z,1.87
2018-04-12T11:31:53.250Z,2.83
2018-04-12T11:34:20.908Z,2.07
2018-04-12T11:36:48.578Z,3.70
2018-04-12T11:39:16.217Z,3.33
2018-04-12T11:41:44.659Z,4.27
2018-04-12T11:44:12.302Z,3.13
2018-04-12T11:46:39.966Z,2.33
2018-04-12T11:49:08.421Z,4.27
2018-04-12T11:51:36.833Z,3.03
2018-04-12T11:54:04.497Z,4.37
2018-04-12T11:56:32.950Z,3.93
2018-04-12T11:59:00.626Z,3.50
2018-04-12T12:01:28.271Z,3.80
2018-04-12T12:03:56.681Z,3.60
2018-04-12T12:06:25.141Z,2.47
2018-04-12T12:08:52.745Z,4.67
2018-04-12T12:11:20.389Z,4.93
2018-04-12T12:13:48.066Z,5.93
2018-04-12T12:16:15.685Z,5.13
2018-04-12T12:18:43.369Z,2.63
2018-04-12T12:21:11.006Z,4.10
2018-04-12T12:23:39.504Z,4.07
2018-04-12T12:26:07.166Z,5.93
2018-04-12T12:28:34.831Z,3.40
2018-04-12T12:31:02.481Z,2.93
2018-04-12T12:33:30.877Z,9.83
2018-04-12T12:35:59.344Z,6.60
2018-04-12T12:38:27.014Z,4.70
2018-04-12T12:40:54.666Z,4.07
2018-04-12T12:43:22.357Z,4.77
2018-04-12T12:45:50.004Z,4.23
2018-04-12T12:48:17.661Z,4.00
2018-04-12T12:50:45.332Z,4.97
2018-04-12T12:53:12.974Z,5.50
2018-04-12T12:55:40.613Z,3.10
2018-04-12T12:58:08.229Z,2.33
2018-04-12T13:00:35.866Z,4.73
2018-04-12T13:03:03.538Z,3.27
2018-04-12T13:05:31.970Z,4.17
2018-04-12T13:07:59.630Z,4.60
2018-04-12T13:10:28.020Z,4.10
2018-04-12T13:12:55.721Z,5.53
2018-04-12T13:15:23.373Z,5.10
2018-04-12T13:17:51.001Z,3.53
2018-04-12T13:20:19.390Z,3.97
2018-04-12T13:22:47.034Z,7.00
2018-04-12T13:25:14.714Z,3.53
2018-04-12T13:27:42.419Z,3.50
2018-04-12T13:30:10.066Z,4.27
2018-04-12T13:32:37.750Z,4.57
2018-04-12T13:35:06.154Z,4.90
2018-04-12T13:37:33.846Z,3.83
2018-04-12T13:40:01.520Z,3.83
2018-04-12T13:42:29.953Z,4.60
2018-04-12T13:44:57.606Z,4.50
2018-04-12T13:47:26.017Z,4.63
2018-04-12T13:49:54.439Z,4.83
2018-04-12T13:52:23.048Z,6.50
2018-04-12T13:54:50.763Z,4.83
2018-04-12T13:57:19.118Z,7.30
2018-04-12T13:59:47.545Z,4.60
2018-04-12T14:02:15.185Z,3.70
2018-04-12T14:04:42.837Z,4.47
2018-04-12T14:07:10.501Z,4.33
2018-04-12T14:09:38.923Z,6.60
2018-04-12T14:12:06.581Z,3.27
2018-04-12T14:14:34.187Z,4.40
2018-04-12T14:17:02.650Z,3.87
2018-04-12T14:19:30.314Z,3.23
2018-04-12T14:21:57.941Z,4.40
2018-04-12T14:24:26.414Z,4.67
2018-04-12T14:26:54.134Z,7.27
2018-04-12T14:29:23.274Z,5.23
2018-04-12T14:31:50.993Z,6.90
2018-04-12T14:34:19.384Z,5.23
2018-04-12T14:36:47.069Z,5.87
2018-04-12T14:39:14.717Z,3.90
2018-04-12T14:41:42.596Z,5.57
2018-04-12T14:44:11.056Z,5.50
2018-04-12T14:46:38.681Z,4.83
2018-04-12T14:49:06.344Z,6.50
2018-04-12T14:51:34.746Z,5.77
2018-04-12T14:54:02.414Z,4.83
2018-04-12T14:56:30.835Z,7.27
2018-04-12T14:58:58.779Z,4.40
2018-04-12T15:01:26.502Z,3.90
2018-04-12T15:03:54.129Z,5.37
2018-04-12T15:06:22.082Z,4.67
2018-04-12T15:08:49.805Z,3.63
2018-04-12T15:11:17.724Z,1.70
2018-04-12T15:13:46.339Z,3.20
2018-04-12T15:16:14.777Z,3.70
2018-04-12T15:18:43.215Z,3.27
2018-04-12T15:21:11.653Z,5.73
2018-04-12T15:23:39.293Z,2.83
2018-04-12T15:26:06.950Z,3.47
2018-04-12T15:28:34.637Z,3.27
2018-04-12T15:31:02.375Z,6.87
2018-04-12T15:33:30.080Z,3.33
2018-04-12T15:35:57.745Z,3.63
2018-04-12T15:38:32.151Z,2.83
2018-04-12T15:49:57.849Z,7.13
2018-04-12T15:52:25.532Z,5.80
2018-04-12T15:54:53.182Z,3.73
2018-04-12T15:57:20.858Z,6.47
2018-04-12T15:59:48.526Z,3.43
2018-04-12T16:02:16.205Z,6.20
2018-04-12T16:04:43.854Z,5.40
2018-04-12T16:13:09.905Z,4.23
2018-04-12T16:15:37.570Z,4.07
2018-04-12T16:18:05.224Z,7.00
2018-04-12T16:20:33.146Z,3.87
2018-04-12T16:23:00.790Z,6.97
2018-04-12T16:25:28.458Z,6.27
2018-04-12T16:27:56.891Z,3.80
2018-04-12T16:30:24.527Z,3.77
2018-04-12T16:32:52.190Z,5.83
2018-04-12T16:35:19.826Z,3.47
2018-04-12T16:37:47.486Z,5.87
2018-04-12T16:40:15.159Z,3.87
2018-04-12T16:54:16.132Z,6.27
2018-04-12T16:56:43.825Z,4.60
2018-04-12T16:59:11.508Z,3.50
2018-04-12T17:01:39.543Z,1.87
2018-04-12T17:04:07.182Z,4.13
2018-04-12T17:06:35.624Z,3.87
2018-04-12T17:09:03.379Z,4.40
2018-04-12T17:11:32.813Z,2.13
2018-04-12T17:14:00.497Z,3.40
2018-04-12T17:16:28.701Z,1.43
2018-04-12T17:18:56.362Z,3.20
2018-04-12T17:21:24.044Z,2.50
2018-04-12T17:23:51.692Z,4.20
2018-04-12T17:26:32.178Z,2.73
2018-04-12T17:28:59.809Z,2.43
2018-04-12T17:31:27.523Z,1.57
2018-04-12T17:33:55.177Z,1.60
2018-04-12T17:36:22.865Z,2.43
2018-04-12T17:38:50.482Z,1.60
2018-04-12T17:41:18.115Z,4.33
2018-04-12T17:49:44.604Z,1.17
2018-04-12T17:52:12.262Z,1.57
2018-04-12T17:54:39.919Z,2.97
2018-04-12T17:57:07.590Z,3.83
2018-04-12T17:59:35.217Z,3.47
2018-04-12T18:02:03.697Z,5.20
2018-04-12T18:04:31.369Z,2.77
2018-04-12T18:06:59.769Z,2.20
2018-04-12T18:09:27.427Z,1.43
2018-04-12T18:12:20.641Z,1.87
2018-04-12T18:14:48.281Z,2.03
2018-04-12T18:17:18.206Z,3.00
2018-04-12T18:19:46.025Z,3.53
2018-04-12T18:22:14.446Z,1.70
2018-04-12T18:24:42.086Z,4.27
2018-04-12T18:30:13.837Z,3.10
2018-04-12T18:32:42.445Z,1.50
2018-04-12T18:35:11.027Z,2.37
2018-04-12T18:37:38.829Z,2.30
2018-04-12T18:40:06.598Z,2.07
2018-04-12T18:42:34.528Z,3.37
2018-04-12T18:45:03.040Z,3.67
2018-04-12T18:47:30.926Z,3.03
2018-04-12T18:52:55.682Z,4.67
2018-04-12T18:55:23.666Z,2.70
2018-04-12T18:57:51.456Z,2.30
2018-04-12T19:00:19.277Z,5.87
2018-04-12T19:02:47.212Z,5.47
2018-04-12T19:05:15.262Z,6.73
2018-04-12T19:07:43.052Z,10.67
2018-04-12T19:10:11.172Z,31.00
2018-04-12T19:12:39.058Z,17.37
2018-04-12T19:15:06.806Z,18.90
2018-04-12T19:17:35.070Z,14.07
2018-04-12T19:20:03.054Z,10.03
2018-04-12T19:22:31.156Z,5.90
2018-04-12T19:24:59.144Z,11.67
2018-04-12T19:27:26.889Z,15.20
2018-04-12T19:30:02.073Z,9.60
2018-04-12T19:32:30.049Z,11.67
2018-04-12T19:34:58.153Z,8.23
2018-04-12T19:37:25.951Z,4.70
2018-04-12T19:39:53.778Z,5.90
2018-04-12T19:42:21.627Z,16.93
2018-04-12T19:44:49.405Z,13.33
2018-04-12T19:47:17.225Z,7.43
2018-04-12T19:49:45.367Z,4.90
2018-04-12T19:52:13.976Z,2.13
2018-04-12T19:54:42.412Z,6.23
2018-04-12T19:57:10.647Z,1.93
2018-04-12T19:59:38.479Z,2.30
2018-04-12T20:02:07.975Z,1.60
2018-04-12T20:04:36.853Z,25.93
2018-04-12T20:07:04.768Z,9.07
2018-04-12T20:09:32.527Z,12.30
2018-04-12T20:12:01.016Z,4.33
2018-04-12T20:14:28.767Z,8.10
2018-04-12T20:16:56.975Z,32.37
2018-04-12T20:19:25.364Z,73.70
2018-04-12T20:21:53.364Z,79.50
2018-04-12T20:24:21.226Z,162.37
2018-04-12T20:26:48.899Z,109.20
2018-04-12T20:29:17.460Z,133.03
2018-04-12T20:31:45.125Z,325.97
2018-04-12T20:34:12.893Z,285.27
2018-04-12T20:36:40.713Z,336.93
2018-04-12T20:39:08.552Z,177.43
2018-04-12T20:41:36.219Z,65.57
2018-04-12T20:44:05.099Z,13.07
2018-04-12T20:46:32.958Z,51.47
2018-04-12T20:49:01.245Z,61.57
2018-04-12T20:51:28.950Z,49.77
2018-04-12T20:53:56.620Z,45.73
2018-04-12T20:56:24.415Z,97.03
2018-04-12T20:58:52.791Z,118.87
2018-04-12T21:01:21.293Z,17.57
2018-04-12T21:03:49.699Z,4.83
2018-04-12T21:06:17.345Z,40.17
2018-04-12T21:08:45.001Z,12.83
2018-04-12T21:11:13.430Z,4.40
2018-04-12T21:13:41.052Z,3.33
2018-04-12T21:16:20.444Z,3.53
2018-04-12T21:18:48.046Z,3.60
2018-04-12T21:21:16.481Z,3.77
2018-04-12T21:23:44.125Z,3.00
2018-04-12T21:26:11.818Z,3.13
2018-04-12T21:28:39.733Z,3.87
2018-04-12T21:31:08.124Z,2.53
2018-04-12T21:33:35.719Z,2.30
2018-04-12T21:36:04.133Z,2.63
2018-04-12T21:38:32.505Z,1.93
2018-04-12T21:41:00.238Z,3.57
2018-04-12T21:43:27.941Z,2.23
2018-04-12T21:45:55.560Z,2.13
2018-04-12T21:48:23.253Z,2.90
2018-04-12T21:50:50.898Z,4.33
2018-04-12T21:53:18.584Z,4.17
2018-04-12T21:55:46.705Z,4.80
2018-04-12T21:58:14.339Z,2.07
2018-04-12T22:00:42.036Z,2.53
2018-04-12T22:03:09.719Z,3.07
2018-04-12T22:05:37.374Z,5.43
2018-04-12T22:08:05.038Z,3.83
2018-04-12T22:10:32.697Z,8.57
2018-04-12T22:13:00.448Z,2.23
2018-04-12T22:15:28.046Z,3.13
2018-04-12T22:17:55.700Z,3.47
2018-04-12T22:20:23.335Z,2.43
2018-04-12T22:22:51.111Z,3.67
2018-04-12T22:25:18.813Z,3.67
2018-04-12T22:27:46.438Z,5.77
2018-04-12T22:30:14.120Z,2.80
2018-04-12T22:32:41.766Z,2.23
2018-04-12T22:35:09.439Z,4.70
2018-04-12T22:37:37.090Z,4.13
2018-04-12T22:40:04.713Z,3.20
2018-04-12T22:42:32.409Z,3.90
2018-04-12T22:45:00.048Z,3.40
2018-04-12T22:47:27.710Z,3.33
2018-04-12T22:49:55.362Z,3.83
2018-04-12T22:52:23.777Z,4.83
2018-04-12T22:54:51.453Z,3.80
2018-04-12T22:57:19.871Z,2.43
2018-04-12T22:59:47.543Z,2.17
2018-04-12T23:02:15.986Z,1.90
2018-04-12T23:04:43.607Z,3.23
2018-04-12T23:07:11.270Z,2.93
2018-04-12T23:09:38.918Z,4.17
2018-04-12T23:12:06.629Z,4.33
2018-04-12T23:14:34.281Z,3.83
2018-04-12T23:17:02.668Z,2.77
2018-04-12T23:19:30.328Z,5.33
2018-04-12T23:21:57.968Z,5.80
2018-04-12T23:24:26.380Z,1.70
2018-04-12T23:26:54.806Z,3.60
2018-04-12T23:29:22.465Z,2.47
2018-04-12T23:31:50.917Z,2.17
2018-04-12T23:34:18.526Z,4.17
2018-04-12T23:36:46.209Z,4.90
2018-04-12T23:39:13.883Z,3.70
2018-04-12T23:41:41.517Z,3.43
2018-04-12T23:44:09.912Z,1.70
2018-04-12T23:46:38.290Z,2.27
2018-04-12T23:49:05.977Z,1.80
2018-04-12T23:51:33.647Z,2.83
2018-04-12T23:54:01.295Z,3.30
2018-04-12T23:56:28.921Z,4.37
2018-04-12T23:58:56.546Z,3.00
